sensor_id;sensor_type;location;lat;lon;timestamp;temperature;humidity
1075;DHT22;526;51.392;12.448;2023-06-14T04:01:43;11.90;97.30
1075;DHT22;526;51.392;12.448;2023-06-14T04:04:11;11.90;97.30
1075;DHT22;526;51.392;12.448;2023-06-14T04:06:36;11.90;97.30
1075;DHT22;526;51.392;12.448;2023-06-14T04:09:02;11.90;97.30
1075;DHT22;526;51.392;12.448;2023-06-14T04:11:28;11.90;97.30
1075;DHT22;526;51.392;12.448;2023-06-14T04:13:53;11.90;97.30
1075;DHT22;526;51.392;12.448;2023-06-14T04:16:21;11.90;97.30
1075;DHT22;526;51.392;12.448;2023-06-14T04:18:47;11.90;97.30
1075;DHT22;526;51.392;12.448;2023-06-14T04:21:15;12.00;97.30
1075;DHT22;526;51.392;12.448;2023-06-14T04:23:40;12.00;97.30
1075;DHT22;526;51.392;12.448;2023-06-14T04:26:09;12.00;97.30
1075;DHT22;526;51.392;12.448;2023-06-14T04:28:35;12.10;97.30
1075;DHT22;526;51.392;12.448;2023-06-14T04:31:06;12.10;97.30
1075;DHT22;526;51.392;12.448;2023-06-14T04:33:36;12.10;97.30
1075;DHT22;526;51.392;12.448;2023-06-14T04:36:09;12.20;97.30
1075;DHT22;526;51.392;12.448;2023-06-14T04:38:35;12.20;97.30
1075;DHT22;526;51.392;12.448;2023-06-14T04:41:00;12.20;97.30
1075;DHT22;526;51.392;12.448;2023-06-14T04:43:27;12.30;97.30
1075;DHT22;526;51.392;12.448;2023-06-14T04:45:53;12.30;97.30
1075;DHT22;526;51.392;12.448;2023-06-14T04:48:21;12.40;97.30
1075;DHT22;526;51.392;12.448;2023-06-14T04:50:48;12.40;97.30
1075;DHT22;526;51.392;12.448;2023-06-14T04:53:13;12.50;97.30
1075;DHT22;526;51.392;12.448;2023-06-14T04:55:39;12.50;97.30
1075;DHT22;526;51.392;12.448;2023-06-14T04:58:05;12.50;97.30
1075;DHT22;526;51.392;12.448;2023-06-14T05:00:30;12.60;97.30
1075;DHT22;526;51.392;12.448;2023-06-14T05:02:56;12.70;97.30
1075;DHT22;526;51.392;12.448;2023-06-14T05:05:22;12.70;97.30
1075;DHT22;526;51.392;12.448;2023-06-14T05:07:48;12.80;97.30
1075;DHT22;526;51.392;12.448;2023-06-14T05:10:14;12.80;97.30
1075;DHT22;526;51.392;12.448;2023-06-14T05:12:39;12.90;97.30
1075;DHT22;526;51.392;12.448;2023-06-14T05:15:06;12.90;97.30
1075;DHT22;526;51.392;12.448;2023-06-14T05:17:34;13.00;97.30
1075;DHT22;526;51.392;12.448;2023-06-14T05:20:01;13.00;97.30
1075;DHT22;526;51.392;12.448;2023-06-14T05:22:27;13.10;97.30
1075;DHT22;526;51.392;12.448;2023-06-14T05:24:52;13.10;97.30
1075;DHT22;526;51.392;12.448;2023-06-14T05:27:18;13.20;97.30
1075;DHT22;526;51.392;12.448;2023-06-14T05:29:43;13.30;97.30
1075;DHT22;526;51.392;12.448;2023-06-14T05:32:09;13.30;97.30
1075;DHT22;526;51.392;12.448;2023-06-14T05:34:35;13.40;97.30
1075;DHT22;526;51.392;12.448;2023-06-14T05:37:00;13.40;97.30
1075;DHT22;526;51.392;12.448;2023-06-14T05:39:26;13.50;97.30
1075;DHT22;526;51.392;12.448;2023-06-14T05:41:51;13.50;97.30
1075;DHT22;526;51.392;12.448;2023-06-14T05:44:17;13.60;97.30
1075;DHT22;526;51.392;12.448;2023-06-14T05:46:43;13.70;97.30
1075;DHT22;526;51.392;12.448;2023-06-14T05:49:08;13.70;97.30
1075;DHT22;526;51.392;12.448;2023-06-14T05:51:34;13.80;97.30
1075;DHT22;526;51.392;12.448;2023-06-14T05:54:00;13.90;97.30
1075;DHT22;526;51.392;12.448;2023-06-14T05:56:26;13.90;97.30
1075;DHT22;526;51.392;12.448;2023-06-14T05:58:51;14.00;97.30
1075;DHT22;526;51.392;12.448;2023-06-14T06:01:17;14.10;97.30
1075;DHT22;526;51.392;12.448;2023-06-14T06:03:42;14.10;97.30
1075;DHT22;526;51.392;12.448;2023-06-14T06:06:11;14.10;97.30
1075;DHT22;526;51.392;12.448;2023-06-14T06:08:37;14.20;97.30
1075;DHT22;526;51.392;12.448;2023-06-14T06:11:02;14.30;97.30
1075;DHT22;526;51.392;12.448;2023-06-14T06:13:28;14.30;97.30
1075;DHT22;526;51.392;12.448;2023-06-14T06:15:53;14.40;97.30
1075;DHT22;526;51.392;12.448;2023-06-14T06:18:19;14.50;97.30
1075;DHT22;526;51.392;12.448;2023-06-14T06:20:44;14.50;97.30
1075;DHT22;526;51.392;12.448;2023-06-14T06:23:10;14.60;97.30
1075;DHT22;526;51.392;12.448;2023-06-14T06:25:36;14.60;97.30
1075;DHT22;526;51.392;12.448;2023-06-14T06:28:02;14.70;97.30
1075;DHT22;526;51.392;12.448;2023-06-14T06:30:27;14.80;97.30
1075;DHT22;526;51.392;12.448;2023-06-14T06:32:53;14.80;97.30
1075;DHT22;526;51.392;12.448;2023-06-14T06:35:18;14.80;97.30
1075;DHT22;526;51.392;12.448;2023-06-14T06:37:44;14.90;97.30
1075;DHT22;526;51.392;12.448;2023-06-14T06:40:10;15.00;97.30
1075;DHT22;526;51.392;12.448;2023-06-14T06:42:35;15.10;97.30
1075;DHT22;526;51.392;12.448;2023-06-14T06:45:01;15.10;97.30
1075;DHT22;526;51.392;12.448;2023-06-14T06:47:27;15.20;97.30
1075;DHT22;526;51.392;12.448;2023-06-14T06:49:52;15.20;97.20
1075;DHT22;526;51.392;12.448;2023-06-14T06:52:18;15.30;97.30
1075;DHT22;526;51.392;12.448;2023-06-14T06:54:43;15.30;97.20
1075;DHT22;526;51.392;12.448;2023-06-14T06:57:09;15.40;97.30
1075;DHT22;526;51.392;12.448;2023-06-14T06:59:36;15.50;96.90
1075;DHT22;526;51.392;12.448;2023-06-14T07:02:01;15.50;96.90
1075;DHT22;526;51.392;12.448;2023-06-14T07:04:27;15.60;96.20
1075;DHT22;526;51.392;12.448;2023-06-14T07:06:52;15.60;96.20
1075;DHT22;526;51.392;12.448;2023-06-14T07:09:18;15.60;96.30
1075;DHT22;526;51.392;12.448;2023-06-14T07:11:45;15.70;96.10
1075;DHT22;526;51.392;12.448;2023-06-14T07:14:11;15.80;96.10
1075;DHT22;526;51.392;12.448;2023-06-14T07:16:37;15.80;96.10
1075;DHT22;526;51.392;12.448;2023-06-14T07:19:03;15.90;95.50
1075;DHT22;526;51.392;12.448;2023-06-14T07:21:29;16.00;95.40
1075;DHT22;526;51.392;12.448;2023-06-14T07:23:54;16.10;95.10
1075;DHT22;526;51.392;12.448;2023-06-14T07:26:20;16.20;94.30
1075;DHT22;526;51.392;12.448;2023-06-14T07:28:47;16.30;93.90
1075;DHT22;526;51.392;12.448;2023-06-14T07:31:14;16.30;93.70
1075;DHT22;526;51.392;12.448;2023-06-14T07:33:41;16.40;93.50
1075;DHT22;526;51.392;12.448;2023-06-14T07:36:07;16.50;93.60
1075;DHT22;526;51.392;12.448;2023-06-14T07:38:33;16.60;93.10
1075;DHT22;526;51.392;12.448;2023-06-14T07:40:58;16.60;93.40
1075;DHT22;526;51.392;12.448;2023-06-14T07:43:24;16.70;92.40
1075;DHT22;526;51.392;12.448;2023-06-14T07:45:50;16.80;92.40
1075;DHT22;526;51.392;12.448;2023-06-14T07:48:15;16.90;92.80
1075;DHT22;526;51.392;12.448;2023-06-14T07:50:41;17.00;92.50
1075;DHT22;526;51.392;12.448;2023-06-14T07:53:06;17.10;92.10
1075;DHT22;526;51.392;12.448;2023-06-14T07:55:32;17.20;91.90
1075;DHT22;526;51.392;12.448;2023-06-14T07:58:05;17.30;91.00
1075;DHT22;526;51.392;12.448;2023-06-14T08:00:31;17.40;90.20
1075;DHT22;526;51.392;12.448;2023-06-14T08:02:57;17.50;91.00
1075;DHT22;526;51.392;12.448;2023-06-14T08:05:28;17.60;90.80
1075;DHT22;526;51.392;12.448;2023-06-14T08:07:54;17.70;90.50
1075;DHT22;526;51.392;12.448;2023-06-14T08:10:20;17.80;89.40
1075;DHT22;526;51.392;12.448;2023-06-14T08:12:46;17.90;89.10
1075;DHT22;526;51.392;12.448;2023-06-14T08:15:11;17.90;88.60
1075;DHT22;526;51.392;12.448;2023-06-14T08:17:37;18.00;88.40
1075;DHT22;526;51.392;12.448;2023-06-14T08:20:03;18.00;86.90
1075;DHT22;526;51.392;12.448;2023-06-14T08:22:32;18.00;87.30
1075;DHT22;526;51.392;12.448;2023-06-14T08:25:00;18.00;86.30
1075;DHT22;526;51.392;12.448;2023-06-14T08:27:26;18.00;85.90
1075;DHT22;526;51.392;12.448;2023-06-14T08:29:52;18.10;85.90
1075;DHT22;526;51.392;12.448;2023-06-14T08:32:17;18.10;86.20
1075;DHT22;526;51.392;12.448;2023-06-14T08:34:43;18.20;86.40
1075;DHT22;526;51.392;12.448;2023-06-14T08:37:08;18.30;86.90
1075;DHT22;526;51.392;12.448;2023-06-14T08:39:34;18.40;86.50
1075;DHT22;526;51.392;12.448;2023-06-14T08:42:01;18.60;85.80
1075;DHT22;526;51.392;12.448;2023-06-14T08:44:28;18.70;85.40
1075;DHT22;526;51.392;12.448;2023-06-14T08:46:55;18.70;84.90
1075;DHT22;526;51.392;12.448;2023-06-14T08:49:23;18.80;85.20
1075;DHT22;526;51.392;12.448;2023-06-14T08:51:56;18.90;84.70
1075;DHT22;526;51.392;12.448;2023-06-14T08:54:22;19.00;84.90
1075;DHT22;526;51.392;12.448;2023-06-14T08:56:49;19.10;83.70
1075;DHT22;526;51.392;12.448;2023-06-14T08:59:17;19.10;83.90
1075;DHT22;526;51.392;12.448;2023-06-14T09:01:45;19.10;83.80
1075;DHT22;526;51.392;12.448;2023-06-14T09:04:10;19.20;84.00
1075;DHT22;526;51.392;12.448;2023-06-14T09:06:36;19.30;83.60
1075;DHT22;526;51.392;12.448;2023-06-14T09:09:02;19.30;82.90
1075;DHT22;526;51.392;12.448;2023-06-14T09:11:30;19.30;83.00
1075;DHT22;526;51.392;12.448;2023-06-14T09:13:56;19.30;82.90
1075;DHT22;526;51.392;12.448;2023-06-14T09:16:21;19.40;83.30
1075;DHT22;526;51.392;12.448;2023-06-14T09:18:47;19.50;82.70
1075;DHT22;526;51.392;12.448;2023-06-14T09:21:14;19.60;82.40
1075;DHT22;526;51.392;12.448;2023-06-14T09:23:42;19.70;82.30
1075;DHT22;526;51.392;12.448;2023-06-14T09:26:15;19.70;82.00
1075;DHT22;526;51.392;12.448;2023-06-14T09:28:59;19.70;81.30
1075;DHT22;526;51.392;12.448;2023-06-14T09:31:24;19.70;81.70
1075;DHT22;526;51.392;12.448;2023-06-14T09:33:50;19.70;81.50
1075;DHT22;526;51.392;12.448;2023-06-14T09:36:17;19.70;81.90
1075;DHT22;526;51.392;12.448;2023-06-14T09:38:55;19.80;81.30
1075;DHT22;526;51.392;12.448;2023-06-14T09:41:31;19.80;81.90
1075;DHT22;526;51.392;12.448;2023-06-14T09:43:58;19.90;81.60
1075;DHT22;526;51.392;12.448;2023-06-14T09:46:26;20.00;82.00
1075;DHT22;526;51.392;12.448;2023-06-14T09:48:52;20.00;81.50
1075;DHT22;526;51.392;12.448;2023-06-14T09:51:18;20.10;81.40
1075;DHT22;526;51.392;12.448;2023-06-14T09:53:47;20.20;80.70
1075;DHT22;526;51.392;12.448;2023-06-14T09:56:16;20.20;80.90
1075;DHT22;526;51.392;12.448;2023-06-14T09:58:45;20.20;79.90
1075;DHT22;526;51.392;12.448;2023-06-14T10:01:12;20.20;79.80
1075;DHT22;526;51.392;12.448;2023-06-14T10:03:39;20.10;80.00
1075;DHT22;526;51.392;12.448;2023-06-14T10:06:07;20.10;80.40
1075;DHT22;526;51.392;12.448;2023-06-14T10:08:36;20.20;80.50
1075;DHT22;526;51.392;12.448;2023-06-14T10:11:02;20.20;80.20
1075;DHT22;526;51.392;12.448;2023-06-14T10:13:30;20.20;80.20
1075;DHT22;526;51.392;12.448;2023-06-14T10:19:03;20.10;80.40
1075;DHT22;526;51.392;12.448;2023-06-14T10:21:43;20.10;80.20
1075;DHT22;526;51.392;12.448;2023-06-14T10:24:13;20.10;80.10
1075;DHT22;526;51.392;12.448;2023-06-14T10:26:54;20.00;80.00
1075;DHT22;526;51.392;12.448;2023-06-14T10:29:20;20.00;80.10
1075;DHT22;526;51.392;12.448;2023-06-14T10:31:50;20.00;79.60
1075;DHT22;526;51.392;12.448;2023-06-14T10:37:06;20.00;81.20
1075;DHT22;526;51.392;12.448;2023-06-14T10:39:38;20.10;81.60
1075;DHT22;526;51.392;12.448;2023-06-14T10:42:05;20.20;81.00
1075;DHT22;526;51.392;12.448;2023-06-14T10:44:38;20.30;81.20
1075;DHT22;526;51.392;12.448;2023-06-14T10:49:50;20.60;81.10
1075;DHT22;526;51.392;12.448;2023-06-14T10:52:16;20.60;81.80
1075;DHT22;526;51.392;12.448;2023-06-14T10:57:31;20.90;80.80
1075;DHT22;526;51.392;12.448;2023-06-14T10:59:58;21.00;80.40
1075;DHT22;526;51.392;12.448;2023-06-14T11:11:16;21.60;79.80
1075;DHT22;526;51.392;12.448;2023-06-14T11:13:45;21.60;80.40
1075;DHT22;526;51.392;12.448;2023-06-14T11:16:16;21.70;78.50
1075;DHT22;526;51.392;12.448;2023-06-14T11:18:42;21.60;78.30
1075;DHT22;526;51.392;12.448;2023-06-14T11:21:07;21.40;79.00
1075;DHT22;526;51.392;12.448;2023-06-14T11:23:34;21.40;80.40
1075;DHT22;526;51.392;12.448;2023-06-14T11:26:00;21.50;80.70
1075;DHT22;526;51.392;12.448;2023-06-14T11:28:38;21.70;79.80
1075;DHT22;526;51.392;12.448;2023-06-14T11:31:04;21.70;79.60
1075;DHT22;526;51.392;12.448;2023-06-14T11:33:30;21.90;80.20
1075;DHT22;526;51.392;12.448;2023-06-14T11:35:55;22.00;80.20
1075;DHT22;526;51.392;12.448;2023-06-14T11:38:21;22.10;80.10
1075;DHT22;526;51.392;12.448;2023-06-14T11:40:46;22.30;78.90
1075;DHT22;526;51.392;12.448;2023-06-14T11:43:12;22.30;78.40
1075;DHT22;526;51.392;12.448;2023-06-14T11:45:39;22.40;78.70
1075;DHT22;526;51.392;12.448;2023-06-14T11:48:08;22.40;77.70
1075;DHT22;526;51.392;12.448;2023-06-14T11:50:44;22.20;77.80
1075;DHT22;526;51.392;12.448;2023-06-14T11:53:12;21.90;78.20
1075;DHT22;526;51.392;12.448;2023-06-14T11:55:45;21.80;79.00
1075;DHT22;526;51.392;12.448;2023-06-14T11:58:13;21.80;79.70
1075;DHT22;526;51.392;12.448;2023-06-14T12:00:40;21.90;78.70
1075;DHT22;526;51.392;12.448;2023-06-14T12:03:10;21.90;79.90
1075;DHT22;526;51.392;12.448;2023-06-14T12:05:39;22.00;79.70
1075;DHT22;526;51.392;12.448;2023-06-14T12:08:09;21.90;79.20
1075;DHT22;526;51.392;12.448;2023-06-14T12:10:43;21.80;79.40
1075;DHT22;526;51.392;12.448;2023-06-14T12:13:17;21.70;79.90
1075;DHT22;526;51.392;12.448;2023-06-14T12:15:44;21.60;79.60
1075;DHT22;526;51.392;12.448;2023-06-14T12:18:12;21.50;79.70
1075;DHT22;526;51.392;12.448;2023-06-14T12:20:40;21.50;80.10
1075;DHT22;526;51.392;12.448;2023-06-14T12:23:08;21.60;82.00
1075;DHT22;526;51.392;12.448;2023-06-14T12:25:44;21.80;80.10
1075;DHT22;526;51.392;12.448;2023-06-14T12:28:12;21.80;79.50
1075;DHT22;526;51.392;12.448;2023-06-14T12:30:38;21.80;79.60
1075;DHT22;526;51.392;12.448;2023-06-14T12:33:06;21.70;79.80
1075;DHT22;526;51.392;12.448;2023-06-14T12:35:32;21.50;80.00
1075;DHT22;526;51.392;12.448;2023-06-14T12:37:58;21.50;80.60
1075;DHT22;526;51.392;12.448;2023-06-14T12:40:29;21.40;81.00
1075;DHT22;526;51.392;12.448;2023-06-14T12:43:04;21.30;80.90
1075;DHT22;526;51.392;12.448;2023-06-14T12:45:33;21.40;82.30
1075;DHT22;526;51.392;12.448;2023-06-14T12:48:03;21.50;81.50
1075;DHT22;526;51.392;12.448;2023-06-14T12:50:31;21.70;81.70
1075;DHT22;526;51.392;12.448;2023-06-14T12:52:57;22.00;82.10
1075;DHT22;526;51.392;12.448;2023-06-14T12:55:25;22.10;81.10
1075;DHT22;526;51.392;12.448;2023-06-14T12:57:53;22.20;81.00
1075;DHT22;526;51.392;12.448;2023-06-14T13:00:18;22.30;80.80
1075;DHT22;526;51.392;12.448;2023-06-14T13:02:55;22.20;80.30
1075;DHT22;526;51.392;12.448;2023-06-14T13:05:23;22.10;80.70
1075;DHT22;526;51.392;12.448;2023-06-14T13:07:52;21.90;80.80
1075;DHT22;526;51.392;12.448;2023-06-14T13:10:20;21.80;80.90
1075;DHT22;526;51.392;12.448;2023-06-14T13:12:45;21.70;82.00
1075;DHT22;526;51.392;12.448;2023-06-14T13:15:11;21.70;82.00
1075;DHT22;526;51.392;12.448;2023-06-14T13:17:42;21.70;82.30
1075;DHT22;526;51.392;12.448;2023-06-14T13:20:09;21.70;82.30
1075;DHT22;526;51.392;12.448;2023-06-14T13:22:37;21.70;82.10
1075;DHT22;526;51.392;12.448;2023-06-14T13:25:10;21.80;81.60
1075;DHT22;526;51.392;12.448;2023-06-14T13:27:37;21.80;81.50
1075;DHT22;526;51.392;12.448;2023-06-14T13:30:04;21.80;81.50
1075;DHT22;526;51.392;12.448;2023-06-14T13:32:31;21.70;81.30
1075;DHT22;526;51.392;12.448;2023-06-14T13:34:58;21.70;80.90
1075;DHT22;526;51.392;12.448;2023-06-14T13:37:24;21.60;81.30
1075;DHT22;526;51.392;12.448;2023-06-14T13:39:50;21.60;81.20
1075;DHT22;526;51.392;12.448;2023-06-14T13:42:15;21.50;81.80
1075;DHT22;526;51.392;12.448;2023-06-14T13:44:40;21.50;81.80
1075;DHT22;526;51.392;12.448;2023-06-14T13:47:06;21.50;81.90
1075;DHT22;526;51.392;12.448;2023-06-14T13:49:32;21.50;82.20
1075;DHT22;526;51.392;12.448;2023-06-14T13:51:57;21.50;82.20
1075;DHT22;526;51.392;12.448;2023-06-14T13:54:25;21.60;81.90
1075;DHT22;526;51.392;12.448;2023-06-14T13:56:50;21.60;81.90
1075;DHT22;526;51.392;12.448;2023-06-14T13:59:16;21.60;82.30
1075;DHT22;526;51.392;12.448;2023-06-14T14:01:42;21.70;82.80
1075;DHT22;526;51.392;12.448;2023-06-14T14:04:07;21.80;82.60
1075;DHT22;526;51.392;12.448;2023-06-14T14:06:33;21.90;82.80
1075;DHT22;526;51.392;12.448;2023-06-14T14:08:59;22.00;82.10
1075;DHT22;526;51.392;12.448;2023-06-14T14:11:24;22.20;82.70
1075;DHT22;526;51.392;12.448;2023-06-14T14:13:50;22.60;82.90
1075;DHT22;526;51.392;12.448;2023-06-14T14:16:15;23.00;79.90
1075;DHT22;526;51.392;12.448;2023-06-14T14:18:41;23.10;79.70
1075;DHT22;526;51.392;12.448;2023-06-14T14:21:07;23.20;79.90
1075;DHT22;526;51.392;12.448;2023-06-14T14:23:32;23.20;79.70
1075;DHT22;526;51.392;12.448;2023-06-14T14:25:58;23.20;79.30
1075;DHT22;526;51.392;12.448;2023-06-14T14:28:23;23.10;79.50
1075;DHT22;526;51.392;12.448;2023-06-14T14:30:49;23.10;79.50
1075;DHT22;526;51.392;12.448;2023-06-14T14:33:15;23.00;80.10
1075;DHT22;526;51.392;12.448;2023-06-14T14:35:43;23.00;78.20
1075;DHT22;526;51.392;12.448;2023-06-14T14:38:11;23.10;79.30
1075;DHT22;526;51.392;12.448;2023-06-14T14:40:39;23.10;80.30
1075;DHT22;526;51.392;12.448;2023-06-14T14:43:06;23.10;78.70
1075;DHT22;526;51.392;12.448;2023-06-14T14:45:34;22.90;77.90
1075;DHT22;526;51.392;12.448;2023-06-14T14:48:03;22.70;78.10
1075;DHT22;526;51.392;12.448;2023-06-14T14:50:28;22.50;78.60
1075;DHT22;526;51.392;12.448;2023-06-14T14:52:54;22.40;78.50
1075;DHT22;526;51.392;12.448;2023-06-14T14:55:23;22.30;79.30
1075;DHT22;526;51.392;12.448;2023-06-14T14:57:53;22.30;79.80
1075;DHT22;526;51.392;12.448;2023-06-14T15:00:26;22.30;79.60
1075;DHT22;526;51.392;12.448;2023-06-14T15:02:52;22.30;79.90
1075;DHT22;526;51.392;12.448;2023-06-14T15:05:25;22.50;80.10
1075;DHT22;526;51.392;12.448;2023-06-14T15:07:53;22.70;79.50
1075;DHT22;526;51.392;12.448;2023-06-14T15:10:19;22.80;79.20
1075;DHT22;526;51.392;12.448;2023-06-14T15:12:53;23.00;78.70
1075;DHT22;526;51.392;12.448;2023-06-14T15:15:22;23.20;77.80
1075;DHT22;526;51.392;12.448;2023-06-14T15:17:47;23.30;78.40
1075;DHT22;526;51.392;12.448;2023-06-14T15:20:21;23.50;78.60
1075;DHT22;526;51.392;12.448;2023-06-14T15:22:51;23.70;79.80
1075;DHT22;526;51.392;12.448;2023-06-14T15:25:30;24.00;79.00
1075;DHT22;526;51.392;12.448;2023-06-14T15:27:58;24.10;77.20
1075;DHT22;526;51.392;12.448;2023-06-14T15:30:33;24.20;76.90
1075;DHT22;526;51.392;12.448;2023-06-14T15:32:59;24.30;76.80
1075;DHT22;526;51.392;12.448;2023-06-14T15:35:30;24.10;76.20
1075;DHT22;526;51.392;12.448;2023-06-14T15:38:19;23.90;76.70
1075;DHT22;526;51.392;12.448;2023-06-14T15:40:55;23.70;77.20
1075;DHT22;526;51.392;12.448;2023-06-14T15:43:23;23.40;77.60
1075;DHT22;526;51.392;12.448;2023-06-14T15:45:51;23.20;78.00
1075;DHT22;526;51.392;12.448;2023-06-14T15:48:19;23.00;78.50
1075;DHT22;526;51.392;12.448;2023-06-14T15:50:50;22.90;78.90
1075;DHT22;526;51.392;12.448;2023-06-14T15:53:15;22.70;79.10
1075;DHT22;526;51.392;12.448;2023-06-14T15:55:43;22.60;80.00
1075;DHT22;526;51.392;12.448;2023-06-14T15:58:09;22.50;79.90
1075;DHT22;526;51.392;12.448;2023-06-14T16:00:34;22.40;79.80
1075;DHT22;526;51.392;12.448;2023-06-14T16:03:00;22.30;80.30
1075;DHT22;526;51.392;12.448;2023-06-14T16:05:25;22.20;80.70
1075;DHT22;526;51.392;12.448;2023-06-14T16:07:51;22.10;80.70
1075;DHT22;526;51.392;12.448;2023-06-14T16:10:18;22.10;80.70
1075;DHT22;526;51.392;12.448;2023-06-14T16:12:43;22.00;80.60
1075;DHT22;526;51.392;12.448;2023-06-14T16:15:09;21.90;80.90
1075;DHT22;526;51.392;12.448;2023-06-14T16:17:34;21.90;81.00
1075;DHT22;526;51.392;12.448;2023-06-14T16:20:00;21.90;81.20
1075;DHT22;526;51.392;12.448;2023-06-14T16:22:25;22.00;81.20
1075;DHT22;526;51.392;12.448;2023-06-14T16:24:51;22.20;81.30
1075;DHT22;526;51.392;12.448;2023-06-14T16:27:17;22.50;81.40
1075;DHT22;526;51.392;12.448;2023-06-14T16:29:43;22.80;81.30
1075;DHT22;526;51.392;12.448;2023-06-14T16:32:08;23.10;80.20
1075;DHT22;526;51.392;12.448;2023-06-14T16:34:34;23.30;79.40
1075;DHT22;526;51.392;12.448;2023-06-14T16:37:01;23.40;78.80
1075;DHT22;526;51.392;12.448;2023-06-14T16:39:26;23.40;79.20
1075;DHT22;526;51.392;12.448;2023-06-14T16:41:52;23.30;78.80
1075;DHT22;526;51.392;12.448;2023-06-14T16:44:17;23.20;79.30
1075;DHT22;526;51.392;12.448;2023-06-14T16:46:44;23.20;79.50
1075;DHT22;526;51.392;12.448;2023-06-14T16:49:09;23.20;78.80
1075;DHT22;526;51.392;12.448;2023-06-14T16:51:35;23.00;78.60
1075;DHT22;526;51.392;12.448;2023-06-14T16:54:00;22.90;78.70
1075;DHT22;526;51.392;12.448;2023-06-14T16:56:26;22.70;79.00
1075;DHT22;526;51.392;12.448;2023-06-14T16:58:53;22.60;79.40
1075;DHT22;526;51.392;12.448;2023-06-14T17:01:20;22.50;79.60
1075;DHT22;526;51.392;12.448;2023-06-14T17:03:46;22.40;80.10
1075;DHT22;526;51.392;12.448;2023-06-14T17:06:11;22.30;80.10
1075;DHT22;526;51.392;12.448;2023-06-14T17:08:37;22.30;79.90
1075;DHT22;526;51.392;12.448;2023-06-14T17:11:02;22.20;80.00
1075;DHT22;526;51.392;12.448;2023-06-14T17:13:28;22.20;80.00
1075;DHT22;526;51.392;12.448;2023-06-14T17:15:53;22.10;80.10
1075;DHT22;526;51.392;12.448;2023-06-14T17:18:19;22.10;80.20
1075;DHT22;526;51.392;12.448;2023-06-14T17:20:45;22.00;80.30
1075;DHT22;526;51.392;12.448;2023-06-14T17:23:10;22.00;80.30
1075;DHT22;526;51.392;12.448;2023-06-14T17:25:36;21.90;80.30
1075;DHT22;526;51.392;12.448;2023-06-14T17:28:02;21.90;80.60
1075;DHT22;526;51.392;12.448;2023-06-14T17:30:29;21.90;81.00
1075;DHT22;526;51.392;12.448;2023-06-14T17:32:55;21.90;81.20
1075;DHT22;526;51.392;12.448;2023-06-14T17:35:21;21.90;80.90
1075;DHT22;526;51.392;12.448;2023-06-14T17:37:47;21.90;80.60
1075;DHT22;526;51.392;12.448;2023-06-14T17:40:13;21.80;81.10
1075;DHT22;526;51.392;12.448;2023-06-14T17:42:38;21.80;80.90
1075;DHT22;526;51.392;12.448;2023-06-14T17:45:04;21.80;80.80
1075;DHT22;526;51.392;12.448;2023-06-14T17:47:30;21.70;81.30
1075;DHT22;526;51.392;12.448;2023-06-14T17:49:55;21.70;81.50
1075;DHT22;526;51.392;12.448;2023-06-14T17:52:23;21.60;81.20
1075;DHT22;526;51.392;12.448;2023-06-14T17:54:49;21.60;81.30
1075;DHT22;526;51.392;12.448;2023-06-14T17:57:15;21.60;81.30
1075;DHT22;526;51.392;12.448;2023-06-14T17:59:42;21.50;81.30
1075;DHT22;526;51.392;12.448;2023-06-14T18:02:08;21.50;81.60
1075;DHT22;526;51.392;12.448;2023-06-14T18:04:34;21.40;81.60
1075;DHT22;526;51.392;12.448;2023-06-14T18:07:00;21.40;81.80
1075;DHT22;526;51.392;12.448;2023-06-14T18:09:26;21.30;81.80
1075;DHT22;526;51.392;12.448;2023-06-14T18:11:54;21.30;82.00
1075;DHT22;526;51.392;12.448;2023-06-14T18:14:23;21.30;82.90
1075;DHT22;526;51.392;12.448;2023-06-14T18:16:50;21.20;83.30
1075;DHT22;526;51.392;12.448;2023-06-14T18:19:16;21.20;83.60
1075;DHT22;526;51.392;12.448;2023-06-14T18:21:46;21.20;84.00
1075;DHT22;526;51.392;12.448;2023-06-14T18:24:11;21.20;84.20
1075;DHT22;526;51.392;12.448;2023-06-14T18:26:37;21.10;84.70
1075;DHT22;526;51.392;12.448;2023-06-14T18:29:02;21.10;84.20
1075;DHT22;526;51.392;12.448;2023-06-14T18:31:28;21.10;84.10
1075;DHT22;526;51.392;12.448;2023-06-14T18:33:54;21.00;84.30
1075;DHT22;526;51.392;12.448;2023-06-14T18:36:19;21.00;84.20
1075;DHT22;526;51.392;12.448;2023-06-14T18:38:45;20.90;84.50
1075;DHT22;526;51.392;12.448;2023-06-14T18:41:14;20.90;85.20
1075;DHT22;526;51.392;12.448;2023-06-14T18:43:39;20.90;85.70
1075;DHT22;526;51.392;12.448;2023-06-14T18:46:05;20.90;86.30
1075;DHT22;526;51.392;12.448;2023-06-14T18:48:30;20.80;86.50
1075;DHT22;526;51.392;12.448;2023-06-14T18:50:56;20.70;86.80
1075;DHT22;526;51.392;12.448;2023-06-14T18:53:21;20.60;87.40
1075;DHT22;526;51.392;12.448;2023-06-14T18:55:48;20.50;87.90
1075;DHT22;526;51.392;12.448;2023-06-14T18:58:15;20.40;87.90
1075;DHT22;526;51.392;12.448;2023-06-14T19:00:41;20.30;88.00
1075;DHT22;526;51.392;12.448;2023-06-14T19:03:07;20.20;88.40
1075;DHT22;526;51.392;12.448;2023-06-14T19:05:32;20.00;88.60
1075;DHT22;526;51.392;12.448;2023-06-14T19:07:57;19.90;88.90
1075;DHT22;526;51.392;12.448;2023-06-14T19:10:23;19.80;89.10
1075;DHT22;526;51.392;12.448;2023-06-14T19:12:49;19.80;89.30
1075;DHT22;526;51.392;12.448;2023-06-14T19:15:14;19.70;89.40
1075;DHT22;526;51.392;12.448;2023-06-14T19:17:40;19.60;89.80
1075;DHT22;526;51.392;12.448;2023-06-14T19:20:07;19.50;90.10
1075;DHT22;526;51.392;12.448;2023-06-14T19:22:33;19.40;90.20
1075;DHT22;526;51.392;12.448;2023-06-14T19:24:58;19.40;90.30
1075;DHT22;526;51.392;12.448;2023-06-14T19:27:24;19.30;90.50
1075;DHT22;526;51.392;12.448;2023-06-14T19:29:50;19.30;90.60
1075;DHT22;526;51.392;12.448;2023-06-14T19:32:16;19.20;90.70
1075;DHT22;526;51.392;12.448;2023-06-14T19:34:41;19.10;90.80
1075;DHT22;526;51.392;12.448;2023-06-14T19:37:10;19.10;91.80
1075;DHT22;526;51.392;12.448;2023-06-14T19:39:35;19.00;92.10
1075;DHT22;526;51.392;12.448;2023-06-14T19:42:01;19.00;91.90
1075;DHT22;526;51.392;12.448;2023-06-14T19:44:26;18.90;91.80
1075;DHT22;526;51.392;12.448;2023-06-14T19:46:52;18.90;92.40
1075;DHT22;526;51.392;12.448;2023-06-14T19:49:17;18.80;92.60
1075;DHT22;526;51.392;12.448;2023-06-14T19:51:43;18.70;92.70
1075;DHT22;526;51.392;12.448;2023-06-14T19:54:09;18.60;93.10
1075;DHT22;526;51.392;12.448;2023-06-14T19:56:34;18.50;93.50
1075;DHT22;526;51.392;12.448;2023-06-14T19:59:00;18.40;93.40
1075;DHT22;526;51.392;12.448;2023-06-14T20:01:27;18.30;93.70
1075;DHT22;526;51.392;12.448;2023-06-14T20:03:52;18.20;94.20
1075;DHT22;526;51.392;12.448;2023-06-14T20:06:18;18.10;94.60
1075;DHT22;526;51.392;12.448;2023-06-14T20:08:43;18.10;94.80
1075;DHT22;526;51.392;12.448;2023-06-14T20:11:09;18.00;94.80
1075;DHT22;526;51.392;12.448;2023-06-14T20:13:34;17.90;95.10
1075;DHT22;526;51.392;12.448;2023-06-14T20:16:00;17.90;95.30
1075;DHT22;526;51.392;12.448;2023-06-14T20:18:26;17.80;95.60
1075;DHT22;526;51.392;12.448;2023-06-14T20:20:51;17.70;95.50